createdAt,value
2022-09-04T00:01:35.931Z,86
2022-09-04T00:06:44.065Z,88
2022-09-04T00:11:53.341Z,88
2022-09-04T00:17:00.381Z,86
2022-09-04T00:22:08.459Z,85
2022-09-04T00:27:15.398Z,87
2022-09-04T00:32:22.761Z,87
2022-09-04T00:37:31.214Z,89
2022-09-04T00:42:40.139Z,87
2022-09-04T00:47:48.379Z,85
2022-09-04T00:52:54.966Z,83
2022-09-04T00:58:02.890Z,83
2022-09-04T01:03:10.136Z,88
2022-09-04T01:08:18.071Z,86
2022-09-04T01:13:25.777Z,88
2022-09-04T01:18:33.773Z,86
2022-09-04T01:23:42.463Z,85
2022-09-04T01:28:49.512Z,85
2022-09-04T01:33:57.839Z,85
2022-09-04T01:39:05.183Z,85
2022-09-04T01:44:12.526Z,86
2022-09-04T01:49:20.471Z,83
2022-09-04T01:54:28.416Z,85
2022-09-04T01:59:35.960Z,85
2022-09-04T02:04:48.441Z,85
2022-09-04T02:09:55.449Z,85
2022-09-04T02:15:03.045Z,85
2022-09-04T02:20:11.033Z,83
2022-09-04T02:25:20.085Z,82
2022-09-04T02:30:27.913Z,81
2022-09-04T02:35:35.904Z,82
2022-09-04T02:40:44.494Z,83
2022-09-04T02:46:02.321Z,83
2022-09-04T02:51:10.420Z,86
2022-09-04T02:56:18.150Z,82
2022-09-04T03:01:25.980Z,82
2022-09-04T03:06:34.969Z,86
2022-09-04T03:11:41.719Z,85
2022-09-04T03:16:49.438Z,82
2022-09-04T03:21:57.402Z,82
2022-09-04T03:27:04.567Z,85
2022-09-04T03:32:11.766Z,85
2022-09-04T03:37:18.692Z,82
2022-09-04T03:42:41.580Z,80
2022-09-04T03:47:49.211Z,81
2022-09-04T03:52:57.817Z,80
2022-09-04T03:58:05.358Z,86
2022-09-04T04:03:13.284Z,82
2022-09-04T04:08:21.532Z,80
2022-09-04T04:13:27.915Z,81
2022-09-04T04:18:35.794Z,80
2022-09-04T04:23:43.612Z,85
2022-09-04T04:28:51.949Z,81
2022-09-04T04:33:59.276Z,79
2022-09-04T04:39:07.211Z,82
2022-09-04T04:44:14.438Z,81
2022-09-04T04:49:20.879Z,80
2022-09-04T04:54:28.171Z,81
2022-09-04T04:59:35.275Z,86
2022-09-04T05:04:43.610Z,81
2022-09-04T05:09:52.310Z,80
2022-09-04T05:14:59.416Z,81
2022-09-04T05:20:07.768Z,82
2022-09-04T05:25:15.918Z,81
2022-09-04T05:30:23.925Z,81
2022-09-04T05:35:37.294Z,85
2022-09-04T05:40:44.380Z,83
2022-09-04T05:45:52.006Z,81
2022-09-04T05:50:58.142Z,82
2022-09-04T05:56:06.871Z,86
2022-09-04T06:01:14.403Z,83
2022-09-04T06:06:23.137Z,81
2022-09-04T06:11:28.860Z,85
2022-09-04T06:16:36.821Z,88
2022-09-04T06:21:43.532Z,86
2022-09-04T06:26:51.099Z,86
2022-09-04T06:32:00.001Z,85
2022-09-04T06:37:09.847Z,87
2022-09-04T06:42:17.310Z,86
2022-09-04T06:47:25.046Z,85
2022-09-04T06:52:32.964Z,86
2022-09-04T06:57:40.727Z,87
2022-09-04T07:02:47.973Z,89
2022-09-04T07:07:55.129Z,87
2022-09-04T07:13:03.515Z,88
2022-09-04T07:18:11.184Z,90
2022-09-04T07:23:18.313Z,90
2022-09-04T07:28:25.996Z,92
2022-09-04T07:33:33.653Z,92
2022-09-04T07:38:41.050Z,94
2022-09-04T07:43:48.684Z,92
2022-09-04T07:50:30.684Z,92
2022-09-04T07:55:37.523Z,91
2022-09-04T08:00:46.340Z,95
2022-09-04T08:05:53.501Z,94
2022-09-04T08:11:00.745Z,94
2022-09-04T08:16:09.134Z,91
2022-09-04T08:21:16.415Z,94
2022-09-04T08:26:23.721Z,96
2022-09-04T08:31:30.786Z,94
2022-09-04T08:36:39.771Z,95
2022-09-04T08:41:47.173Z,96
2022-09-04T08:46:56.298Z,98
2022-09-04T08:52:04.546Z,100
2022-09-04T08:57:12.920Z,98
2022-09-04T09:02:21.279Z,98
2022-09-04T09:07:29.071Z,99
2022-09-04T09:12:36.062Z,97
2022-09-04T09:17:44.409Z,98
2022-09-04T09:22:52.354Z,99
2022-09-04T09:28:00.225Z,98
2022-09-04T09:33:08.257Z,99
2022-09-04T09:38:17.048Z,98
2022-09-04T09:43:25.617Z,97
2022-09-04T09:48:33.507Z,98
2022-09-04T09:53:41.338Z,98
2022-09-04T09:58:48.555Z,98
2022-09-04T10:03:56.890Z,98
2022-09-04T10:09:04.406Z,98
2022-09-04T10:14:12.093Z,100
2022-09-04T10:19:20.942Z,99
2022-09-04T10:24:28.364Z,98
2022-09-04T10:29:36.221Z,99
2022-09-04T10:34:43.062Z,99
2022-09-04T10:39:50.018Z,98
2022-09-04T10:44:57.421Z,98
2022-09-04T10:50:05.619Z,99
2022-09-04T10:55:12.998Z,99
2022-09-04T11:00:20.053Z,98
2022-09-04T11:05:27.892Z,98
2022-09-04T11:10:36.715Z,99
2022-09-04T11:15:43.972Z,100
2022-09-04T11:20:52.506Z,100
2022-09-04T11:26:00.588Z,99
2022-09-04T11:31:07.244Z,100
2022-09-04T11:36:15.170Z,99
2022-09-04T11:41:23.382Z,99
2022-09-04T11:46:31.533Z,99
2022-09-04T11:51:39.196Z,99
2022-09-04T11:56:47.343Z,100
2022-09-04T12:01:54.137Z,100
2022-09-04T12:07:07.803Z,99
2022-09-04T12:12:14.932Z,100
2022-09-04T12:17:21.535Z,100
2022-09-04T12:22:30.086Z,100
2022-09-04T12:27:38.420Z,100
2022-09-04T12:32:46.602Z,100
2022-09-04T12:37:54.995Z,100
2022-09-04T12:43:23.173Z,100
2022-09-04T12:48:31.654Z,100
2022-09-04T12:53:38.138Z,100
2022-09-04T12:58:45.375Z,100
2022-09-04T13:03:53.147Z,100
2022-09-04T13:09:01.500Z,100
2022-09-04T13:14:09.374Z,100
2022-09-04T13:19:17.329Z,100
2022-09-04T13:24:23.982Z,100
2022-09-04T13:29:32.923Z,100
2022-09-04T13:34:39.645Z,100
2022-09-04T13:45:27.309Z,100
2022-09-04T13:51:16.074Z,100
2022-09-04T13:56:24.462Z,100
2022-09-04T14:01:31.829Z,100
2022-09-04T14:06:40.234Z,100
2022-09-04T14:11:47.456Z,100
2022-09-04T14:16:56.221Z,100
2022-09-04T14:22:04.484Z,100
2022-09-04T14:27:12.780Z,100
2022-09-04T14:32:20.093Z,100
2022-09-04T14:37:28.524Z,100
2022-09-04T14:42:37.560Z,100
2022-09-04T14:47:46.056Z,100
2022-09-04T14:52:52.744Z,100
2022-09-04T14:57:59.923Z,100
2022-09-04T15:03:07.929Z,100
2022-09-04T15:08:14.978Z,100
2022-09-04T15:13:22.808Z,100
2022-09-04T15:18:31.293Z,100
2022-09-04T15:23:39.051Z,100
2022-09-04T15:28:45.959Z,100
2022-09-04T15:33:54.037Z,100
2022-09-04T15:39:01.377Z,100
2022-09-04T15:44:08.572Z,100
2022-09-04T15:49:16.478Z,100
2022-09-04T15:54:24.597Z,100
2022-09-04T15:59:31.460Z,100
2022-09-04T16:04:39.828Z,100
2022-09-04T16:09:46.541Z,100
2022-09-04T16:14:54.288Z,98
2022-09-04T16:20:02.006Z,100
2022-09-04T16:25:09.973Z,100
2022-09-04T16:30:17.917Z,100
2022-09-04T16:35:25.018Z,100
2022-09-04T16:40:33.157Z,100
2022-09-04T16:45:42.373Z,100
2022-09-04T16:50:50.095Z,100
2022-09-04T16:55:57.692Z,100
2022-09-04T17:01:05.973Z,100
2022-09-04T17:06:13.814Z,100
2022-09-04T17:11:21.217Z,100
2022-09-04T17:16:29.572Z,100
2022-09-04T17:21:36.217Z,99
2022-09-04T17:26:44.093Z,100
2022-09-04T17:31:51.982Z,100
2022-09-04T17:42:06.629Z,100
2022-09-04T17:47:13.654Z,99
2022-09-04T17:52:20.789Z,99
2022-09-04T17:57:28.684Z,100
2022-09-04T18:02:36.060Z,100
2022-09-04T18:07:43.668Z,99
2022-09-04T18:12:51.456Z,99
2022-09-04T18:17:59.004Z,99
2022-09-04T18:23:07.063Z,98
2022-09-04T18:28:16.147Z,99
2022-09-04T18:33:23.514Z,99
2022-09-04T18:38:31.819Z,98
2022-09-04T18:43:40.086Z,98
2022-09-04T18:53:54.826Z,99
2022-09-04T18:59:02.794Z,100
2022-09-04T19:04:10.503Z,99
2022-09-04T19:09:18.860Z,98
2022-09-04T19:14:26.920Z,98
2022-09-04T19:19:34.586Z,99
2022-09-04T19:24:41.694Z,99
2022-09-04T19:29:49.871Z,100
2022-09-04T19:34:56.895Z,98
2022-09-04T19:40:05.907Z,98
2022-09-04T19:45:14.466Z,98
2022-09-04T19:51:53.816Z,98
2022-09-04T19:57:00.421Z,98
2022-09-04T20:02:08.410Z,99
2022-09-04T20:07:16.649Z,97
2022-09-04T20:12:25.725Z,97
2022-09-04T20:17:33.092Z,97
2022-09-04T20:22:41.373Z,97
2022-09-04T20:27:49.828Z,97
2022-09-04T20:32:57.781Z,97
2022-09-04T20:38:05.064Z,96
2022-09-04T20:43:12.901Z,97
2022-09-04T20:48:20.096Z,97
2022-09-04T20:53:29.078Z,96
2022-09-04T20:58:37.325Z,97
2022-09-04T21:03:45.424Z,96
2022-09-04T21:08:53.373Z,95
2022-09-04T21:14:01.980Z,96
2022-09-04T21:19:09.315Z,98
2022-09-04T21:24:16.888Z,96
2022-09-04T21:29:24.399Z,95
2022-09-04T21:34:32.271Z,95
2022-09-04T21:39:40.773Z,95
2022-09-04T21:44:49.340Z,95
2022-09-04T21:50:37.103Z,97
2022-09-04T21:55:44.297Z,95
2022-09-04T22:00:52.137Z,95
2022-09-04T22:06:00.511Z,95
2022-09-04T22:11:09.070Z,94
2022-09-04T22:16:16.251Z,97
2022-09-04T22:21:24.545Z,96
2022-09-04T22:26:32.479Z,97
2022-09-04T22:31:39.963Z,95
2022-09-04T22:36:48.254Z,94
2022-09-04T22:41:55.763Z,95
2022-09-04T22:47:03.291Z,94
2022-09-04T22:52:11.506Z,95
2022-09-04T22:57:19.578Z,95
2022-09-04T23:02:27.503Z,94
2022-09-04T23:07:36.666Z,95
2022-09-04T23:12:44.581Z,95
2022-09-04T23:17:51.610Z,97
2022-09-04T23:22:59.071Z,95
2022-09-04T23:28:06.714Z,95
2022-09-04T23:33:13.972Z,94
2022-09-04T23:38:21.837Z,94
2022-09-04T23:43:29.930Z,95
2022-09-04T23:48:36.869Z,95
2022-09-04T23:53:44.260Z,92
2022-09-04T23:58:52.068Z,92
